Terminal Aerodrome Forecast
Issued by NWS

Home | Current Version | Previous Version | Text Only | Print | Product List | Glossary On
Versions: 1 2 3 4 5 6 7 8 9 10 11 12 13 14 15 16 17 18 19 20 21 22 23 24 25 26 27 28 29 30 31 32 33 34 35 36 37 38 39 40 41 42 43 44 45 46
000
FTUS45 KGJT 282017 AAA
TAFEGE
TAF AMD
KEGE 282017Z 2820/2918 00000KT P6SM VCSH SCT015 BKN070
     FM290100 34007KT 5SM -SHRA BR OVC015
     FM290500 33004KT P6SM VCSH OVC040 WS020/03025KT
     FM290800 VRB03KT P6SM VCSH BKN045
     FM291400 VRB03KT P6SM SCT050 BKN100=

USA.gov is the U.S. government's official web portal to all federal, state and local government web resources and services.